Time;durP1;ratioP1;P1;durP2;ratioP2;P2;SDS_P1;SDS_P2;PMS_P1;PMS_P2;Temp;Humidity;BMP_temperature;BMP_pressure;BME280_temperature;BME280_humidity;BME280_pressure;Samples;Min_cycle;Max_cycle;Signal;HPM_P1;HPM_P2
2022/01/04 00:00:13;;;;;;;;;;;;;;;;;;5089006;28;19914;-61
2022/01/04 00:02:38;;;;;;;;;;;;;;;;;;5088277;28;19947;-61
2022/01/04 00:05:04;;;;;;;;;;;;;;;;;;5088172;28;19911;-61
2022/01/04 00:07:29;;;;;;;;;;;;;;;;;;5086940;28;19912;-61
2022/01/04 00:09:55;;;;;;;;;;;;;;;;;;5088268;28;20273;-61
2022/01/04 00:15:03;;;;;;;;;;;;;;;;;;5087600;28;20406;-60
2022/01/04 00:17:28;;;;;;;;;;;;;;;;;;5088391;28;19912;-60
2022/01/04 00:19:54;;;;;;;;;;;;;;;;;;5086070;28;19970;-61
2022/01/04 00:22:19;;;;;;;;;;;;;;;;;;5089012;28;20021;-62
2022/01/04 00:24:44;;;;;;;;;;;;;;;;;;5086252;28;20441;-61
2022/01/04 00:27:09;;;;;;;;;;;;;;;;;;5088446;28;19962;-60
2022/01/04 00:29:34;;;;;;;;;;;;;;;;;;5087530;28;19995;-60
2022/01/04 00:31:59;;;;;;;;;;;;;;;;;;5088586;28;19959;-64
2022/01/04 00:34:24;;;;;;;;;;;;;;;;;;5087360;28;19915;-67
2022/01/04 00:36:50;;;;;;;;;;;;;;;;;;5086262;28;19908;-67
2022/01/04 00:39:15;;;;;;;;;;;;;;;;;;5088128;28;19938;-67
2022/01/04 00:41:40;;;;;;;;;;;;;;;;;;5087817;28;19908;-67
2022/01/04 00:44:05;;;;;;;;;;;;;;;;;;5088188;28;19947;-67
2022/01/04 00:46:30;;;;;;;;;;;;;;;;;;5088068;28;19998;-67
2022/01/04 00:49:11;;;;;;;;;;;;;;;;;;5090018;28;19918;-66
2022/01/04 00:51:36;;;;;;;;;;;;;;;;;;5090342;28;19919;-66
2022/01/04 00:54:01;;;;;;;;;;;;;;;;;;5090610;28;20295;-67
2022/01/04 00:56:26;;;;;;;;;;;;;;;;;;5090529;28;19922;-67
2022/01/04 00:58:51;;;;;;;;;;;;;;;;;;5092016;28;19912;-67
2022/01/04 01:01:16;;;;;;;;;;;;;;;;;;5091204;28;20307;-67
2022/01/04 01:03:42;;;;;;;;;;;;;;;;;;5090274;28;20033;-67
2022/01/04 01:06:07;;;;;;;;;;;;;;;;;;5089140;28;19912;-67
2022/01/04 01:08:32;;;;;;;;;;;;;;;;;;5091702;28;20373;-67
2022/01/04 01:10:58;;;;;;;;;;;;;;;;;;5090673;28;20420;-67
2022/01/04 01:13:23;;;;;;;;;;;;;;;;;;5090849;28;20007;-66
2022/01/04 01:15:48;;;;;;;;;;;;;;;;;;5089098;28;19911;-66
2022/01/04 01:18:13;;;;;;;;;;;;;;;;;;5091002;28;19915;-66
2022/01/04 01:20:41;;;;;;;;;;;;;;;;;;5090049;28;19931;-67
2022/01/04 01:23:06;;;;;;;;;;;;;;;;;;5090344;28;19916;-67
2022/01/04 01:25:31;;;;;;;;;;;;;;;;;;5088460;28;19993;-67
2022/01/04 01:27:56;;;;;;;;;;;;;;;;;;5087121;28;20384;-67
2022/01/04 01:30:22;;;;;;;;;;;;;;;;;;5090134;28;19916;-67
2022/01/04 01:32:48;;;;;;;;;;;;;;;;;;5089051;28;19915;-67
2022/01/04 01:35:14;;;;;;;;;;;;;;;;;;5089431;28;19985;-67
2022/01/04 01:37:39;;;;;;;;;;;;;;;;;;5088905;28;20281;-66
2022/01/04 01:40:04;;;;;;;;;;;;;;;;;;5090176;28;19908;-67
2022/01/04 01:42:29;;;;;;;;;;;;;;;;;;5090262;28;20286;-68
2022/01/04 01:44:54;;;;;;;;;;;;;;;;;;5090852;28;19920;-68
2022/01/04 01:47:19;;;;;;;;;;;;;;;;;;5090298;28;19912;-66
2022/01/04 01:49:45;;;;;;;;;;;;;;;;;;5089119;28;19908;-66
2022/01/04 01:52:10;;;;;;;;;;;;;;;;;;5090549;28;20804;-66
2022/01/04 01:54:35;;;;;;;;;;;;;;;;;;5089943;28;19912;-66
2022/01/04 01:57:00;;;;;;;;;;;;;;;;;;5087566;28;20258;-66
2022/01/04 01:59:25;;;;;;;;;;;;;;;;;;5090235;28;19911;-66
2022/01/04 02:01:51;;;;;;;;;;;;;;;;;;5089825;28;20827;-66
2022/01/04 02:04:16;;;;;;;;;;;;;;;;;;5090771;28;19912;-67
2022/01/04 02:06:41;;;;;;;;;;;;;;;;;;5089916;28;19919;-67
2022/01/04 02:09:06;;;;;;;;;;;;;;;;;;5090633;28;19966;-67
2022/01/04 02:11:31;;;;;;;;;;;;;;;;;;5090077;28;20257;-67
2022/01/04 02:13:56;;;;;;;;;;;;;;;;;;5090783;28;20257;-67
2022/01/04 02:16:21;;;;;;;;;;;;;;;;;;5090578;28;19912;-67
2022/01/04 02:18:47;;;;;;;;;;;;;;;;;;5089483;28;20349;-67
2022/01/04 02:21:12;;;;;;;;;;;;;;;;;;5089286;28;20010;-66
2022/01/04 02:23:37;;;;;;;;;;;;;;;;;;5089323;28;19918;-67
2022/01/04 02:26:02;;;;;;;;;;;;;;;;;;5089845;28;19920;-66
2022/01/04 02:28:27;;;;;;;;;;;;;;;;;;5089259;28;19950;-65
2022/01/04 02:30:52;;;;;;;;;;;;;;;;;;5088400;28;19939;-66
2022/01/04 02:33:17;;;;;;;;;;;;;;;;;;5090365;28;20339;-67
2022/01/04 02:35:42;;;;;;;;;;;;;;;;;;5089276;28;19958;-66
2022/01/04 02:38:07;;;;;;;;;;;;;;;;;;5090139;28;19998;-66
2022/01/04 02:40:33;;;;;;;;;;;;;;;;;;5089555;28;20016;-67
2022/01/04 02:42:58;;;;;;;;;;;;;;;;;;5089682;28;19912;-66
2022/01/04 02:45:23;;;;;;;;;;;;;;;;;;5089991;28;19933;-66
2022/01/04 02:47:48;;;;;;;;;;;;;;;;;;5089434;28;20352;-66
2022/01/04 02:50:13;;;;;;;;;;;;;;;;;;5089870;28;19908;-66
2022/01/04 02:52:38;;;;;;;;;;;;;;;;;;5089291;28;19908;-65
2022/01/04 02:55:03;;;;;;;;;;;;;;;;;;5090120;28;19908;-66
2022/01/04 02:57:28;;;;;;;;;;;;;;;;;;5089095;28;20291;-66
2022/01/04 02:59:53;;;;;;;;;;;;;;;;;;5087963;28;19908;-66
2022/01/04 03:02:19;;;;;;;;;;;;;;;;;;5089534;28;19915;-67
2022/01/04 03:04:44;;;;;;;;;;;;;;;;;;5088900;28;19965;-66
2022/01/04 03:07:09;;;;;;;;;;;;;;;;;;5089682;28;20403;-66
2022/01/04 03:09:34;;;;;;;;;;;;;;;;;;5089228;28;19907;-67
2022/01/04 03:11:59;;;;;;;;;;;;;;;;;;5088985;28;19965;-66
2022/01/04 03:14:24;;;;;;;;;;;;;;;;;;5089709;28;19912;-67
2022/01/04 03:16:49;;;;;;;;;;;;;;;;;;5087393;28;20356;-67
2022/01/04 03:19:14;;;;;;;;;;;;;;;;;;5088958;28;19908;-65
2022/01/04 03:21:39;;;;;;;;;;;;;;;;;;5088754;28;19912;-66
2022/01/04 03:24:05;;;;;;;;;;;;;;;;;;5088880;28;19961;-66
2022/01/04 03:26:30;;;;;;;;;;;;;;;;;;5088781;28;20011;-66
2022/01/04 03:28:55;;;;;;;;;;;;;;;;;;5087255;28;19938;-67
2022/01/04 03:31:20;;;;;;;;;;;;;;;;;;5089303;28;20006;-68
2022/01/04 03:33:45;;;;;;;;;;;;;;;;;;5088652;28;20374;-67
2022/01/04 03:36:10;;;;;;;;;;;;;;;;;;5088729;28;20383;-67
2022/01/04 03:38:35;;;;;;;;;;;;;;;;;;5088716;28;19943;-66
2022/01/04 03:41:00;;;;;;;;;;;;;;;;;;5089116;28;19919;-67
2022/01/04 03:43:25;;;;;;;;;;;;;;;;;;5088821;28;19919;-66
2022/01/04 03:45:50;;;;;;;;;;;;;;;;;;5088631;28;19918;-66
2022/01/04 03:48:16;;;;;;;;;;;;;;;;;;5089431;28;19968;-66
2022/01/04 03:50:41;;;;;;;;;;;;;;;;;;5088574;28;20633;-66
2022/01/04 03:53:06;;;;;;;;;;;;;;;;;;5089201;28;19922;-67
2022/01/04 03:55:31;;;;;;;;;;;;;;;;;;5088366;28;19923;-67
2022/01/04 03:57:56;;;;;;;;;;;;;;;;;;5086652;28;19918;-67
2022/01/04 04:00:21;;;;;;;;;;;;;;;;;;5088659;28;19927;-67
2022/01/04 04:02:46;;;;;;;;;;;;;;;;;;5088531;28;19935;-66
2022/01/04 04:05:13;;;;;;;;;;;;;;;;;;5089210;28;19911;-67
2022/01/04 04:07:38;;;;;;;;;;;;;;;;;;5088372;28;19916;-66
2022/01/04 04:10:03;;;;;;;;;;;;;;;;;;5088960;28;19999;-67
2022/01/04 04:12:28;;;;;;;;;;;;;;;;;;5088599;28;20414;-67
2022/01/04 04:14:53;;;;;;;;;;;;;;;;;;5088276;28;19908;-67
2022/01/04 04:17:18;;;;;;;;;;;;;;;;;;5088474;28;20361;-67
2022/01/04 04:19:43;;;;;;;;;;;;;;;;;;5088263;28;19916;-67
2022/01/04 04:22:08;;;;;;;;;;;;;;;;;;5088869;28;19908;-67
2022/01/04 04:24:33;;;;;;;;;;;;;;;;;;5090984;28;19916;-67
2022/01/04 04:26:59;;;;;;;;;;;;;;;;;;5089941;28;20705;-67
2022/01/04 04:29:27;;;;;;;;;;;;;;;;;;5092496;28;19930;-67
2022/01/04 04:31:52;;;;;;;;;;;;;;;;;;5092246;28;20014;-66
2022/01/04 04:34:17;;;;;;;;;;;;;;;;;;5091818;28;20006;-66
2022/01/04 04:36:42;;;;;;;;;;;;;;;;;;5091782;28;19994;-67
2022/01/04 04:39:07;;;;;;;;;;;;;;;;;;5092311;28;20280;-67
2022/01/04 04:41:32;;;;;;;;;;;;;;;;;;5091911;28;20269;-67
2022/01/04 04:43:57;;;;;;;;;;;;;;;;;;5091929;28;19908;-67
2022/01/04 04:46:22;;;;;;;;;;;;;;;;;;5091665;28;19919;-66
2022/01/04 04:48:47;;;;;;;;;;;;;;;;;;5091425;28;21521;-67
2022/01/04 04:51:13;;;;;;;;;;;;;;;;;;5092078;28;19915;-67
2022/01/04 04:53:38;;;;;;;;;;;;;;;;;;5091550;28;19908;-66
2022/01/04 04:56:03;;;;;;;;;;;;;;;;;;5088607;28;19912;-66
2022/01/04 04:58:29;;;;;;;;;;;;;;;;;;5091516;28;20003;-66
2022/01/04 05:00:54;;;;;;;;;;;;;;;;;;5091646;28;19947;-66
2022/01/04 05:03:19;;;;;;;;;;;;;;;;;;5091967;28;19954;-67
2022/01/04 05:05:44;;;;;;;;;;;;;;;;;;5091516;28;19911;-66
2022/01/04 05:08:10;;;;;;;;;;;;;;;;;;5091961;28;19981;-65
2022/01/04 05:10:35;;;;;;;;;;;;;;;;;;5091526;28;19912;-65
2022/01/04 05:13:00;;;;;;;;;;;;;;;;;;5091395;28;19911;-65
2022/01/04 05:15:25;;;;;;;;;;;;;;;;;;5093326;28;19908;-66
2022/01/04 05:17:50;;;;;;;;;;;;;;;;;;5091035;28;19980;-65
2022/01/04 05:20:15;;;;;;;;;;;;;;;;;;5091452;28;19920;-65
2022/01/04 05:22:41;;;;;;;;;;;;;;;;;;5090928;28;19919;-65
2022/01/04 05:25:06;;;;;;;;;;;;;;;;;;5089886;28;19942;-65
2022/01/04 05:27:31;;;;;;;;;;;;;;;;;;5090928;28;20281;-65
2022/01/04 05:29:56;;;;;;;;;;;;;;;;;;5090817;28;19912;-66
2022/01/04 05:32:22;;;;;;;;;;;;;;;;;;5091575;28;19915;-66
2022/01/04 05:34:47;;;;;;;;;;;;;;;;;;5090626;28;19911;-66
2022/01/04 05:37:12;;;;;;;;;;;;;;;;;;5090834;28;20330;-66
2022/01/04 05:39:37;;;;;;;;;;;;;;;;;;5090290;28;19912;-66
2022/01/04 05:42:02;;;;;;;;;;;;;;;;;;5091350;28;19908;-66
2022/01/04 05:44:27;;;;;;;;;;;;;;;;;;5090792;28;20374;-66
2022/01/04 05:46:53;;;;;;;;;;;;;;;;;;5089990;28;19947;-66
2022/01/04 05:49:18;;;;;;;;;;;;;;;;;;5090674;28;19951;-66
2022/01/04 05:51:43;;;;;;;;;;;;;;;;;;5090132;28;20280;-66
2022/01/04 05:54:08;;;;;;;;;;;;;;;;;;5089059;28;20399;-65
2022/01/04 05:56:34;;;;;;;;;;;;;;;;;;5092586;28;19935;-65
2022/01/04 05:58:59;;;;;;;;;;;;;;;;;;5089422;28;19919;-66
2022/01/04 06:01:24;;;;;;;;;;;;;;;;;;5090258;28;19908;-65
2022/01/04 06:03:51;;;;;;;;;;;;;;;;;;5089454;28;19929;-65
2022/01/04 06:06:16;;;;;;;;;;;;;;;;;;5090435;28;19927;-66
2022/01/04 06:08:41;;;;;;;;;;;;;;;;;;5090262;28;19912;-66
2022/01/04 06:11:08;;;;;;;;;;;;;;;;;;5090263;28;19908;-66
2022/01/04 06:16:17;;;;;;;;;;;;;;;;;;5089696;28;19919;-66
2022/01/04 06:18:42;;;;;;;;;;;;;;;;;;5089936;28;19908;-65
2022/01/04 06:21:07;;;;;;;;;;;;;;;;;;5088613;28;20365;-67
2022/01/04 06:23:33;;;;;;;;;;;;;;;;;;5090471;28;19915;-67
2022/01/04 06:25:58;;;;;;;;;;;;;;;;;;5089292;28;19928;-67
2022/01/04 06:28:23;;;;;;;;;;;;;;;;;;5089665;28;19916;-66
2022/01/04 06:30:48;;;;;;;;;;;;;;;;;;5089866;28;19915;-67
2022/01/04 06:33:13;;;;;;;;;;;;;;;;;;5090161;28;19908;-67
2022/01/04 06:35:38;;;;;;;;;;;;;;;;;;5089573;28;19995;-66
2022/01/04 06:38:03;;;;;;;;;;;;;;;;;;5089505;28;19918;-67
2022/01/04 06:40:31;;;;;;;;;;;;;;;;;;5089725;28;19935;-68
2022/01/04 06:42:56;;;;;;;;;;;;;;;;;;5089464;28;20633;-67
2022/01/04 06:45:21;;;;;;;;;;;;;;;;;;5089307;28;20360;-67
2022/01/04 06:47:46;;;;;;;;;;;;;;;;;;5089069;28;19908;-67
2022/01/04 06:50:15;;;;;;;;;;;;;;;;;;5088468;28;19919;-67
2022/01/04 06:52:40;;;;;;;;;;;;;;;;;;5089620;28;19912;-68
2022/01/04 06:55:05;;;;;;;;;;;;;;;;;;5089972;28;19908;-67
2022/01/04 06:57:30;;;;;;;;;;;;;;;;;;5088416;28;19922;-67
2022/01/04 06:59:55;;;;;;;;;;;;;;;;;;5089008;28;20392;-67
2022/01/04 07:02:21;;;;;;;;;;;;;;;;;;5089340;28;19912;-67
2022/01/04 07:04:46;;;;;;;;;;;;;;;;;;5089052;28;19912;-67
2022/01/04 07:07:11;;;;;;;;;;;;;;;;;;5089434;28;19922;-67
2022/01/04 07:09:37;;;;;;;;;;;;;;;;;;5089158;28;19916;-67
2022/01/04 07:12:02;;;;;;;;;;;;;;;;;;5089660;28;20029;-67
2022/01/04 07:14:27;;;;;;;;;;;;;;;;;;5089221;28;20006;-66
2022/01/04 07:16:52;;;;;;;;;;;;;;;;;;5088772;28;19908;-67
2022/01/04 07:19:17;;;;;;;;;;;;;;;;;;5087809;28;20356;-67
2022/01/04 07:21:43;;;;;;;;;;;;;;;;;;5088723;28;19908;-67
2022/01/04 07:24:08;;;;;;;;;;;;;;;;;;5089185;28;20398;-67
2022/01/04 07:26:33;;;;;;;;;;;;;;;;;;5088752;28;19916;-67
2022/01/04 07:28:58;;;;;;;;;;;;;;;;;;5088513;28;19957;-67
2022/01/04 07:31:24;;;;;;;;;;;;;;;;;;5088759;28;19911;-67
2022/01/04 07:33:49;;;;;;;;;;;;;;;;;;5088700;28;19908;-68
2022/01/04 07:36:14;;;;;;;;;;;;;;;;;;5089143;28;19991;-68
2022/01/04 07:38:39;;;;;;;;;;;;;;;;;;5088953;28;19912;-68
2022/01/04 07:41:04;;;;;;;;;;;;;;;;;;5089011;28;19991;-68
2022/01/04 07:43:29;;;;;;;;;;;;;;;;;;5088840;28;20361;-68
2022/01/04 07:45:54;;;;;;;;;;;;;;;;;;5088398;28;19912;-68
2022/01/04 07:48:19;;;;;;;;;;;;;;;;;;5087632;28;20006;-68
2022/01/04 07:50:45;;;;;;;;;;;;;;;;;;5088264;28;19912;-68
2022/01/04 07:53:10;;;;;;;;;;;;;;;;;;5089087;28;19912;-67
2022/01/04 07:55:35;;;;;;;;;;;;;;;;;;5089123;28;20276;-68
2022/01/04 07:58:00;;;;;;;;;;;;;;;;;;5090254;28;19912;-68
2022/01/04 08:00:25;;;;;;;;;;;;;;;;;;5093181;28;20531;-68
2022/01/04 08:02:50;;;;;;;;;;;;;;;;;;5092522;28;19961;-68
2022/01/04 08:05:15;;;;;;;;;;;;;;;;;;5092882;28;19937;-68
2022/01/04 08:07:40;;;;;;;;;;;;;;;;;;5092299;28;19914;-68
2022/01/04 08:10:05;;;;;;;;;;;;;;;;;;5092797;28;19934;-69
2022/01/04 08:12:31;;;;;;;;;;;;;;;;;;5092682;28;19911;-68
2022/01/04 08:14:56;;;;;;;;;;;;;;;;;;5092461;28;20248;-68
2022/01/04 08:17:21;;;;;;;;;;;;;;;;;;5090887;28;19912;-68
2022/01/04 08:19:46;;;;;;;;;;;;;;;;;;5092436;28;20642;-68
2022/01/04 08:22:11;;;;;;;;;;;;;;;;;;5092830;28;19994;-68
2022/01/04 08:24:36;;;;;;;;;;;;;;;;;;5091911;28;19924;-68
2022/01/04 08:27:01;;;;;;;;;;;;;;;;;;5092085;28;19958;-68
2022/01/04 08:29:26;;;;;;;;;;;;;;;;;;5092321;28;19935;-68
2022/01/04 08:31:52;;;;;;;;;;;;;;;;;;5091965;28;20003;-68
2022/01/04 08:34:17;;;;;;;;;;;;;;;;;;5091856;28;19912;-68
2022/01/04 08:36:42;;;;;;;;;;;;;;;;;;5091804;28;20265;-68
2022/01/04 08:39:14;;;;;;;;;;;;;;;;;;5092205;28;19908;-68
2022/01/04 08:41:39;;;;;;;;;;;;;;;;;;5092609;28;19911;-67
2022/01/04 08:44:04;;;;;;;;;;;;;;;;;;5091610;28;19957;-68
2022/01/04 08:46:30;;;;;;;;;;;;;;;;;;5090573;28;20284;-68
2022/01/04 08:48:56;;;;;;;;;;;;;;;;;;5091750;28;19908;-68
2022/01/04 08:51:21;;;;;;;;;;;;;;;;;;5092058;28;19918;-68
2022/01/04 08:53:47;;;;;;;;;;;;;;;;;;5092106;28;19908;-68
2022/01/04 08:56:12;;;;;;;;;;;;;;;;;;5092374;28;20058;-68
2022/01/04 08:58:37;;;;;;;;;;;;;;;;;;5091581;28;19935;-68
2022/01/04 09:01:02;;;;;;;;;;;;;;;;;;5091665;28;19907;-68
2022/01/04 09:03:28;;;;;;;;;;;;;;;;;;5091676;28;20360;-68
2022/01/04 09:05:53;;;;;;;;;;;;;;;;;;5091456;28;19912;-68
2022/01/04 09:08:18;;;;;;;;;;;;;;;;;;5091916;28;19908;-68
2022/01/04 09:10:43;;;;;;;;;;;;;;;;;;5090690;28;19908;-68
2022/01/04 09:13:16;;;;;;;;;;;;;;;;;;5091806;28;19914;-68
2022/01/04 09:18:43;;;;;;;;;;;;;;;;;;5093630;28;20006;-68
2022/01/04 09:21:09;;;;;;;;;;;;;;;;;;5092012;28;19908;-68
2022/01/04 09:23:34;;;;;;;;;;;;;;;;;;5091989;28;19953;-68
2022/01/04 09:25:59;;;;;;;;;;;;;;;;;;5090685;28;19920;-68
2022/01/04 09:28:25;;;;;;;;;;;;;;;;;;5091191;28;20002;-68
2022/01/04 09:30:51;;;;;;;;;;;;;;;;;;5089892;28;19908;-68
2022/01/04 09:33:16;;;;;;;;;;;;;;;;;;5091736;28;19923;-68
2022/01/04 09:35:41;;;;;;;;;;;;;;;;;;5092768;28;19915;-69
2022/01/04 09:38:06;;;;;;;;;;;;;;;;;;5091113;28;20316;-69
2022/01/04 09:40:31;;;;;;;;;;;;;;;;;;5091150;28;19912;-69
2022/01/04 09:42:56;;;;;;;;;;;;;;;;;;5089909;28;19915;-69
2022/01/04 09:45:21;;;;;;;;;;;;;;;;;;5091029;28;20006;-69
2022/01/04 09:47:47;;;;;;;;;;;;;;;;;;5091147;28;20391;-70
2022/01/04 09:50:12;;;;;;;;;;;;;;;;;;5091165;28;19912;-70
2022/01/04 09:52:37;;;;;;;;;;;;;;;;;;5091365;28;19916;-69
2022/01/04 09:55:02;;;;;;;;;;;;;;;;;;5087376;28;19912;-68
2022/01/04 09:57:27;;;;;;;;;;;;;;;;;;5089395;28;19912;-68
2022/01/04 09:59:52;;;;;;;;;;;;;;;;;;5089445;28;19923;-68
2022/01/04 10:02:17;;;;;;;;;;;;;;;;;;5090754;28;19952;-69
2022/01/04 10:04:42;;;;;;;;;;;;;;;;;;5090630;28;19994;-68
2022/01/04 10:07:08;;;;;;;;;;;;;;;;;;5090377;28;20126;-68
2022/01/04 10:09:33;;;;;;;;;;;;;;;;;;5090841;28;20356;-68
2022/01/04 10:11:58;;;;;;;;;;;;;;;;;;5088235;28;19907;-69
2022/01/04 10:14:23;;;;;;;;;;;;;;;;;;5090116;28;19911;-68
2022/01/04 10:16:48;;;;;;;;;;;;;;;;;;5089737;28;20333;-68
2022/01/04 10:19:13;;;;;;;;;;;;;;;;;;5089434;28;19908;-68
2022/01/04 10:21:38;;;;;;;;;;;;;;;;;;5089210;28;19916;-68
2022/01/04 10:24:03;;;;;;;;;;;;;;;;;;5088681;28;19908;-68
2022/01/04 10:26:28;;;;;;;;;;;;;;;;;;5089120;28;19919;-69
2022/01/04 10:28:54;;;;;;;;;;;;;;;;;;5088470;28;19930;-69
2022/01/04 10:31:19;;;;;;;;;;;;;;;;;;5089232;28;20302;-69
2022/01/04 10:33:44;;;;;;;;;;;;;;;;;;5089264;28;20490;-69
2022/01/04 10:36:12;;;;;;;;;;;;;;;;;;5088633;28;19908;-68
2022/01/04 10:38:37;;;;;;;;;;;;;;;;;;5087631;28;19915;-69
2022/01/04 10:41:03;;;;;;;;;;;;;;;;;;5087218;28;19908;-68
2022/01/04 10:43:28;;;;;;;;;;;;;;;;;;5088454;28;20298;-68
2022/01/04 10:45:53;;;;;;;;;;;;;;;;;;5088254;28;19918;-68
2022/01/04 10:48:18;;;;;;;;;;;;;;;;;;5089003;28;19919;-68
2022/01/04 10:50:43;;;;;;;;;;;;;;;;;;5088787;28;19908;-68
2022/01/04 10:53:09;;;;;;;;;;;;;;;;;;5088384;28;19923;-68
2022/01/04 10:55:34;;;;;;;;;;;;;;;;;;5088657;28;19919;-68
2022/01/04 10:57:59;;;;;;;;;;;;;;;;;;5088103;28;19912;-68
2022/01/04 11:00:24;;;;;;;;;;;;;;;;;;5088127;28;19908;-68
2022/01/04 11:02:49;;;;;;;;;;;;;;;;;;5088227;28;20002;-68
2022/01/04 11:05:14;;;;;;;;;;;;;;;;;;5089155;28;19912;-68
2022/01/04 11:07:39;;;;;;;;;;;;;;;;;;5088504;28;19911;-68
2022/01/04 11:10:04;;;;;;;;;;;;;;;;;;5087186;28;19937;-68
2022/01/04 11:12:30;;;;;;;;;;;;;;;;;;5088117;28;19923;-68
2022/01/04 11:14:55;;;;;;;;;;;;;;;;;;5087466;28;19923;-68
2022/01/04 11:17:20;;;;;;;;;;;;;;;;;;5088036;28;19919;-68
2022/01/04 11:19:45;;;;;;;;;;;;;;;;;;5087440;28;19923;-69
2022/01/04 11:22:10;;;;;;;;;;;;;;;;;;5087878;28;19916;-68
2022/01/04 11:24:35;;;;;;;;;;;;;;;;;;5088095;28;19915;-68
2022/01/04 11:27:00;;;;;;;;;;;;;;;;;;5087507;28;19923;-69
2022/01/04 11:29:25;;;;;;;;;;;;;;;;;;5087549;28;19908;-69
2022/01/04 11:31:51;;;;;;;;;;;;;;;;;;5086985;28;20607;-69
2022/01/04 11:34:16;;;;;;;;;;;;;;;;;;5088081;28;19912;-69
2022/01/04 11:36:41;;;;;;;;;;;;;;;;;;5087759;28;19954;-69
2022/01/04 11:39:06;;;;;;;;;;;;;;;;;;5086336;28;20000;-69
2022/01/04 11:41:31;;;;;;;;;;;;;;;;;;5088037;28;19920;-69
2022/01/04 11:43:56;;;;;;;;;;;;;;;;;;5087465;28;19916;-69
2022/01/04 11:46:21;;;;;;;;;;;;;;;;;;5087872;28;19943;-69
2022/01/04 11:48:46;;;;;;;;;;;;;;;;;;5086994;28;19916;-69
2022/01/04 11:51:11;;;;;;;;;;;;;;;;;;5087631;28;19908;-68
2022/01/04 11:53:37;;;;;;;;;;;;;;;;;;5088195;28;19912;-69
2022/01/04 11:56:03;;;;;;;;;;;;;;;;;;5087549;28;19912;-69
2022/01/04 11:58:28;;;;;;;;;;;;;;;;;;5087481;28;19915;-68
2022/01/04 12:00:53;;;;;;;;;;;;;;;;;;5085960;28;19912;-69
2022/01/04 12:03:18;;;;;;;;;;;;;;;;;;5082961;28;19931;-70
2022/01/04 12:05:43;;;;;;;;;;;;;;;;;;5085822;28;19915;-69
2022/01/04 12:08:08;;;;;;;;;;;;;;;;;;5086121;28;19950;-69
2022/01/04 12:10:34;;;;;;;;;;;;;;;;;;5087210;28;20433;-69
2022/01/04 12:12:59;;;;;;;;;;;;;;;;;;5086004;28;19912;-68
2022/01/04 12:15:24;;;;;;;;;;;;;;;;;;5087425;28;20549;-69
2022/01/04 12:17:49;;;;;;;;;;;;;;;;;;5083300;28;19916;-68
2022/01/04 12:20:14;;;;;;;;;;;;;;;;;;5084823;28;19912;-68
2022/01/04 12:22:40;;;;;;;;;;;;;;;;;;5086532;28;19919;-70
2022/01/04 12:25:05;;;;;;;;;;;;;;;;;;5083074;28;19927;-68
2022/01/04 12:27:30;;;;;;;;;;;;;;;;;;5082983;28;19915;-68
2022/01/04 12:29:55;;;;;;;;;;;;;;;;;;5087385;28;19942;-68
2022/01/04 12:32:21;;;;;;;;;;;;;;;;;;5087967;28;19969;-69
2022/01/04 12:34:46;;;;;;;;;;;;;;;;;;5086133;28;19912;-69
2022/01/04 12:37:16;;;;;;;;;;;;;;;;;;5087033;28;20372;-69
2022/01/04 12:39:41;;;;;;;;;;;;;;;;;;5086413;28;19916;-69
2022/01/04 12:42:06;;;;;;;;;;;;;;;;;;5088884;28;19911;-69
2022/01/04 12:44:31;;;;;;;;;;;;;;;;;;5088177;28;20007;-68
2022/01/04 12:46:56;;;;;;;;;;;;;;;;;;5090941;28;19923;-68
2022/01/04 12:49:21;;;;;;;;;;;;;;;;;;5091072;28;19912;-69
2022/01/04 12:51:47;;;;;;;;;;;;;;;;;;5090516;28;19915;-69
2022/01/04 12:54:12;;;;;;;;;;;;;;;;;;5091282;28;20276;-69
2022/01/04 12:56:37;;;;;;;;;;;;;;;;;;5091530;28;19920;-69
2022/01/04 12:59:02;;;;;;;;;;;;;;;;;;5091459;28;20006;-69
2022/01/04 13:01:28;;;;;;;;;;;;;;;;;;5091965;28;20056;-68
2022/01/04 13:03:53;;;;;;;;;;;;;;;;;;5090250;28;19908;-68
2022/01/04 13:06:18;;;;;;;;;;;;;;;;;;5089113;28;20376;-70
2022/01/04 13:08:43;;;;;;;;;;;;;;;;;;5091995;28;19908;-69
2022/01/04 13:11:08;;;;;;;;;;;;;;;;;;5091680;28;19908;-68
2022/01/04 13:13:33;;;;;;;;;;;;;;;;;;5089342;28;19915;-69
2022/01/04 13:15:58;;;;;;;;;;;;;;;;;;5090412;28;19923;-69
2022/01/04 13:18:23;;;;;;;;;;;;;;;;;;5088571;28;19916;-68
2022/01/04 13:20:48;;;;;;;;;;;;;;;;;;5090193;28;19914;-70
2022/01/04 13:23:18;;;;;;;;;;;;;;;;;;5089541;28;19908;-75
2022/01/04 13:25:43;;;;;;;;;;;;;;;;;;5090744;28;19926;-75
2022/01/04 13:28:08;;;;;;;;;;;;;;;;;;5090047;28;19908;-75
2022/01/04 13:30:35;;;;;;;;;;;;;;;;;;5090893;28;19948;-75
2022/01/04 13:33:00;;;;;;;;;;;;;;;;;;5086822;28;19912;-75
2022/01/04 13:35:25;;;;;;;;;;;;;;;;;;5088854;28;19999;-76
2022/01/04 13:37:50;;;;;;;;;;;;;;;;;;5090259;28;19912;-75
2022/01/04 13:40:15;;;;;;;;;;;;;;;;;;5089098;28;20277;-75
2022/01/04 13:42:40;;;;;;;;;;;;;;;;;;5090190;28;19912;-76
2022/01/04 13:45:06;;;;;;;;;;;;;;;;;;5089360;28;19920;-75
2022/01/04 13:47:31;;;;;;;;;;;;;;;;;;5090807;28;19959;-75
2022/01/04 13:49:56;;;;;;;;;;;;;;;;;;5089508;28;19916;-75
2022/01/04 13:52:21;;;;;;;;;;;;;;;;;;5089675;28;19918;-74
2022/01/04 13:54:46;;;;;;;;;;;;;;;;;;5089214;28;19912;-74
2022/01/04 13:57:11;;;;;;;;;;;;;;;;;;5089709;28;19923;-75
2022/01/04 13:59:36;;;;;;;;;;;;;;;;;;5088109;28;19946;-74
2022/01/04 14:02:02;;;;;;;;;;;;;;;;;;5088454;28;20651;-73
2022/01/04 14:04:27;;;;;;;;;;;;;;;;;;5089304;28;20425;-74
2022/01/04 14:06:52;;;;;;;;;;;;;;;;;;5089587;28;19916;-74
2022/01/04 14:09:17;;;;;;;;;;;;;;;;;;5089817;28;19912;-74
2022/01/04 14:11:42;;;;;;;;;;;;;;;;;;5089556;28;19912;-74
2022/01/04 14:14:07;;;;;;;;;;;;;;;;;;5089219;28;19965;-74
2022/01/04 14:16:32;;;;;;;;;;;;;;;;;;5091266;28;20285;-73
2022/01/04 14:18:58;;;;;;;;;;;;;;;;;;5089062;28;20040;-73
2022/01/04 14:21:23;;;;;;;;;;;;;;;;;;5089397;28;19973;-73
2022/01/04 14:23:48;;;;;;;;;;;;;;;;;;5089027;28;19991;-74
2022/01/04 14:26:13;;;;;;;;;;;;;;;;;;5089505;28;20293;-74
2022/01/04 14:28:38;;;;;;;;;;;;;;;;;;5088515;28;20360;-75
2022/01/04 14:31:03;;;;;;;;;;;;;;;;;;5087323;28;20333;-74
2022/01/04 14:33:29;;;;;;;;;;;;;;;;;;5088771;28;20038;-75
2022/01/04 14:35:56;;;;;;;;;;;;;;;;;;5088873;28;19911;-74
2022/01/04 14:38:21;;;;;;;;;;;;;;;;;;5089253;28;20002;-74
2022/01/04 14:40:48;;;;;;;;;;;;;;;;;;5088325;28;20454;-73
2022/01/04 14:43:13;;;;;;;;;;;;;;;;;;5087091;28;19919;-73
2022/01/04 14:45:38;;;;;;;;;;;;;;;;;;5088713;28;20372;-72
2022/01/04 14:48:03;;;;;;;;;;;;;;;;;;5088115;28;19908;-73
2022/01/04 14:50:29;;;;;;;;;;;;;;;;;;5088834;28;20391;-72
2022/01/04 14:52:55;;;;;;;;;;;;;;;;;;5088025;28;19916;-72
2022/01/04 14:55:20;;;;;;;;;;;;;;;;;;5087480;28;19916;-72
2022/01/04 14:57:45;;;;;;;;;;;;;;;;;;5088602;28;19908;-73
2022/01/04 15:00:11;;;;;;;;;;;;;;;;;;5088382;28;19912;-73
2022/01/04 15:02:36;;;;;;;;;;;;;;;;;;5089308;28;20241;-73
2022/01/04 15:05:01;;;;;;;;;;;;;;;;;;5088338;28;19995;-72
2022/01/04 15:07:26;;;;;;;;;;;;;;;;;;5088973;28;19919;-72
2022/01/04 15:09:51;;;;;;;;;;;;;;;;;;5089087;28;19958;-73
2022/01/04 15:12:16;;;;;;;;;;;;;;;;;;5089572;28;19915;-72
2022/01/04 15:14:41;;;;;;;;;;;;;;;;;;5089239;28;19912;-72
2022/01/04 15:17:07;;;;;;;;;;;;;;;;;;5089075;28;19908;-72
2022/01/04 15:19:32;;;;;;;;;;;;;;;;;;5089314;28;19922;-72
2022/01/04 15:21:57;;;;;;;;;;;;;;;;;;5088741;28;19938;-73
2022/01/04 15:24:23;;;;;;;;;;;;;;;;;;5089207;28;19931;-73
2022/01/04 15:26:49;;;;;;;;;;;;;;;;;;5088816;28;20368;-73
2022/01/04 15:29:14;;;;;;;;;;;;;;;;;;5087737;28;19961;-73
2022/01/04 15:31:39;;;;;;;;;;;;;;;;;;5088783;28;19961;-73
2022/01/04 15:34:04;;;;;;;;;;;;;;;;;;5088215;28;19950;-73
2022/01/04 15:36:29;;;;;;;;;;;;;;;;;;5088144;28;19915;-73
2022/01/04 15:38:55;;;;;;;;;;;;;;;;;;5087529;28;19953;-73
2022/01/04 15:41:20;;;;;;;;;;;;;;;;;;5084777;28;19915;-73
2022/01/04 15:43:45;;;;;;;;;;;;;;;;;;5086682;28;19915;-73
2022/01/04 15:46:10;;;;;;;;;;;;;;;;;;5085500;28;19919;-72
2022/01/04 15:48:35;;;;;;;;;;;;;;;;;;5087076;28;19923;-72
2022/01/04 15:51:00;;;;;;;;;;;;;;;;;;5085028;28;19908;-73
2022/01/04 15:53:27;;;;;;;;;;;;;;;;;;5087969;28;19923;-72
2022/01/04 15:55:53;;;;;;;;;;;;;;;;;;5087792;28;19912;-73
2022/01/04 15:58:18;;;;;;;;;;;;;;;;;;5087319;28;19919;-73
2022/01/04 16:00:43;;;;;;;;;;;;;;;;;;5088341;28;19994;-73
2022/01/04 16:03:08;;;;;;;;;;;;;;;;;;5088531;28;19972;-73
2022/01/04 16:05:33;;;;;;;;;;;;;;;;;;5088711;28;19911;-73
2022/01/04 16:07:58;;;;;;;;;;;;;;;;;;5088404;28;20464;-73
2022/01/04 16:10:24;;;;;;;;;;;;;;;;;;5089047;28;20360;-73
2022/01/04 16:12:49;;;;;;;;;;;;;;;;;;5088608;28;20030;-74
2022/01/04 16:15:18;;;;;;;;;;;;;;;;;;5087155;28;20002;-73
2022/01/04 16:18:13;;;;;;;;;;;;;;;;;;5088579;28;20376;-73
2022/01/04 16:23:21;;;;;;;;;;;;;;;;;;5092631;28;19965;-73
2022/01/04 16:25:47;;;;;;;;;;;;;;;;;;5088661;28;19932;-73
2022/01/04 16:28:12;;;;;;;;;;;;;;;;;;5089765;28;19915;-73
2022/01/04 16:30:37;;;;;;;;;;;;;;;;;;5090496;28;19908;-73
2022/01/04 16:33:02;;;;;;;;;;;;;;;;;;5089857;28;19908;-73
2022/01/04 16:35:27;;;;;;;;;;;;;;;;;;5091217;28;19919;-73
2022/01/04 16:37:52;;;;;;;;;;;;;;;;;;5089746;28;19908;-73
2022/01/04 16:40:22;;;;;;;;;;;;;;;;;;5089970;28;20026;-73
2022/01/04 16:42:47;;;;;;;;;;;;;;;;;;5090479;28;20395;-73